• Join FlightAware (Why Join?)
  • Login
  • US Flag 
10:11AM EDT


 

Airport Tracker/Info


-or-


 

Live Flight TrackerFlight Track Log ✈ SKW6526 ✈ 04-May-2013 ✈ KPHX - KLAX

Flight Track Log - Related Links

Times and Time Zones

All times are in EDT time to prevent confusion due to time zone crossing. See the SKW6526 flight status page for this flight to view local times or setup timezone preferences in your user account.

Time Position Orientation Groundspeed Altitude Reporting Facility
EDT Latitude Longitude Course Direction KTS MPH feet Rate Location/Type
01:48PM 33.4333 -111.9833 273° West 172 198 2,200  Level Phoenix TRACON
01:49PM 33.4378 -111.9125 86° East 202 232 4,300 2,220 Climbing Albuquerque Center
01:50PM 33.4333 -112.3788 270° West  Level FlightAware Approximate
01:50PM 33.4122 -111.8461 115° Southeast 220 253 7,300  Level Albuquerque Center
01:51PM 33.4383 -112.5049 273° West  Level FlightAware Approximate
01:51PM 33.3842 -111.9072 241° Southwest 216 249 9,700  Level Albuquerque Center
01:52PM 33.4434 -112.6311 273° West  Level FlightAware Approximate
01:52PM 33.3911 -111.9892 276° West 247 284 10,800  Level Albuquerque Center
01:53PM 33.4483 -112.7572 273° West  Level FlightAware Approximate
01:53PM 33.3981 -112.0889 275° West 296 341 12,800  Level Albuquerque Center
01:54PM 33.4058 -112.1892 275° West 302 348 14,900 1,800 Climbing Albuquerque Center
01:55PM 33.4142 -112.2911 276° West 306 352 16,600 1,740 Climbing Albuquerque Center
01:56PM 33.4214 -112.3950 275° West 311 358 18,600 1,920 Climbing Albuquerque Center
01:57PM 33.4308 -112.5200 275° West 315 362 20,600 1,500 Climbing Albuquerque Center
01:58PM 33.4378 -112.6100 275° West 316 364 21,700 1,200 Climbing Albuquerque Center
01:59PM 33.4475 -112.7386 275° West 322 371 23,200 1,260 Climbing Albuquerque Center
02:00PM 33.4622 -112.8458 279° West 327 376 24,400 1,080 Climbing Albuquerque Center
02:01PM 33.4975 -112.9475 293° West 332 382 25,500 1,020 Climbing Albuquerque Center
02:02PM 33.5353 -113.0508 294° West 337 388 26,500 780 Climbing Albuquerque Center
02:03PM 33.5725 -113.1550 293° West 341 392 27,200 720 Climbing Albuquerque Center
02:04PM 33.6103 -113.2619 293° West 346 398 28,100 840 Climbing Albuquerque Center
02:05PM 33.6542 -113.3869 293° West 348 400 29,000 720 Climbing Albuquerque Center
02:06PM 33.6931 -113.4967 293° West 354 407 29,700 480 Climbing Albuquerque Center
02:07PM 33.7325 -113.6086 293° West 360 414 30,000 120 Climbing Albuquerque Center
02:08PM 33.7722 -113.7244 292° West 370 426 30,000  Level Albuquerque Center
02:09PM 33.8150 -113.8450 293° West 386 444 30,000  Level Albuquerque Center
02:10PM 33.8567 -113.9656 293° West 390 449 30,000  Level Albuquerque Center
02:11PM 33.9064 -114.1089 293° West 387 445 30,000  Level Albuquerque Center
02:12PM 33.9481 -114.2275 293° West 386 444 30,000  Level Albuquerque Center
02:14PM 33.9881 -114.3475 292° West 384 442 30,000  Level Albuquerque Center
02:15PM 34.0269 -114.4669 291° West 384 442 30,000  Level Albuquerque Center
02:16PM 34.0664 -114.5850 292° West 382 440 30,000  Level Albuquerque Center
02:17PM 34.1019 -114.7311 286° West 382 440 30,000  Level Los Angeles Center
02:18PM 34.1047 -114.8556 272° West 375 432 30,000  Level Los Angeles Center
02:19PM 34.1069 -114.9783 271° West 369 425 30,000  Level Los Angeles Center
02:20PM 34.1078 -115.1039 270° West 374 430 30,000  Level Los Angeles Center
02:21PM 34.1092 -115.2528 271° West 372 428 30,000  Level Los Angeles Center
02:22PM 34.1100 -115.3767 271° West 373 429 30,000 -60 Level Los Angeles Center
02:23PM 34.1117 -115.5003 271° West 370 426 29,900 -600 Descending Los Angeles Center
02:24PM 34.1122 -115.6297 270° West 384 442 28,800 -960 Descending Los Angeles Center
02:25PM 34.1117 -115.7636 270° West 399 459 28,000 -420 Descending Los Angeles Center
02:26PM 34.0950 -115.8919 261° West 393 452 28,000 -300 Level Los Angeles Center
02:27PM 34.0717 -116.0422 259° West 384 442 27,500 -900 Descending Los Angeles Center
02:28PM 34.0522 -116.1700 260° West 388 447 26,200 -1,260 Descending Los Angeles Center
02:29PM 34.0342 -116.2956 260° West 382 440 24,900 -1,260 Descending Los Angeles Center
02:30PM 34.0158 -116.4153 260° West 368 423 23,600 -1,200 Descending Los Angeles Center
02:31PM 34.0025 -116.5369 263° West 367 422 22,500 -1,140 Descending Los Angeles Center
02:32PM 33.9897 -116.6822 264° West 366 421 21,300 -1,200 Descending Los Angeles Center
02:33PM 33.9794 -116.8017 264° West 361 415 20,100 -1,200 Descending Los Angeles Center
02:34PM 33.9667 -116.9333 263° West 349 402 18,900 -1,200 Descending Southern California TRACON
02:35PM 33.9667 -117.0500 270° West 348 400 17,600 -1,200 Descending Southern California TRACON
02:36PM 33.9500 -117.1667 260° West 345 397 16,600 -1,080 Descending Southern California TRACON
02:37PM 33.9333 -117.2667 259° West 338 389 15,600 -1,020 Descending Southern California TRACON
02:38PM 33.9333 -117.3833 270° West 335 386 14,600 -1,020 Descending Southern California TRACON
02:39PM 33.9167 -117.5167 261° West 337 388 13,500 -1,020 Descending Southern California TRACON
02:40PM 33.9333 -117.6167 281° West 344 396 12,500 -900 Descending Southern California TRACON
02:41PM 33.9500 -117.7333 280° West 334 384 11,700 -660 Descending Southern California TRACON
02:42PM 33.9667 -117.8333 281° West 321 369 11,200 -540 Descending Southern California TRACON
02:43PM 33.9667 -117.9500 270° West 324 373 10,700 -540 Descending Southern California TRACON
02:44PM 33.9667 -118.0500 270° West 324 373 10,200 -420 Descending Southern California TRACON
02:45PM 33.9667 -118.1500 270° West 306 352 9,900 -420 Descending Southern California TRACON
02:46PM 33.9500 -118.2333 256° West 281 323 9,500 -420 Descending Southern California TRACON
02:47PM 33.9511 -118.2550 274° West 292 336 9,400 -540 Descending Los Angeles Center
02:48PM 33.8986 -118.3442 235° Southwest 279 321 8,800 -780 Descending Los Angeles Center
02:49PM 33.8656 -118.4086 238° Southwest 242 278 7,900 -960 Descending Los Angeles Center
02:50PM 33.8475 -118.4808 253° West 214 246 6,900 -960 Descending Los Angeles Center
02:51PM 33.8328 -118.5392 253° West 199 229 6,000 -540 Descending Los Angeles Center
02:52PM 33.8236 -118.6036 260° West 200 230 5,900 -720 Descending Los Angeles Center
02:53PM 33.8619 -118.6522 314° West 200 230 4,600 -1,260 Descending Los Angeles Center
02:54PM 33.9114 -118.6186 29° Northeast 196 226 3,300 -1,080 Descending Los Angeles Center
02:55PM 33.9206 -118.5542 80° East 196 226 2,400 -900 Descending Los Angeles Center
02:56PM 33.9264 -118.4967 83° East 173 199 1,500 -780 Descending Los Angeles Center
02:57PM 33.9308 -118.4508 83° East 148 170 800 -540 Descending Los Angeles Center
02:58PM 33.9375 -118.3992 81° East 144 166 400 -420 Descending Los Angeles Center